sensor_id;sensor_type;location;lat;lon;timestamp;pressure;altitude;pressure_sealevel;temperature;humidity
59043;BME280;44826;51.596;5.624;2023-02-21T00:02:11;102002.88;;;7.55;94.94
59043;BME280;44826;51.596;5.624;2023-02-21T00:04:55;102011.47;;;7.56;94.92
59043;BME280;44826;51.596;5.624;2023-02-21T00:07:39;102008.91;;;7.56;94.68
59043;BME280;44826;51.596;5.624;2023-02-21T00:10:23;102001.97;;;7.55;94.85
59043;BME280;44826;51.596;5.624;2023-02-21T00:13:08;102000.25;;;7.54;95.00
59043;BME280;44826;51.596;5.624;2023-02-21T00:15:52;101998.50;;;7.53;94.84
59043;BME280;44826;51.596;5.624;2023-02-21T00:18:36;101995.91;;;7.53;95.10
59043;BME280;44826;51.596;5.624;2023-02-21T00:21:21;102001.09;;;7.53;95.08
59043;BME280;44826;51.596;5.624;2023-02-21T00:24:05;102004.56;;;7.53;95.06
59043;BME280;44826;51.596;5.624;2023-02-21T00:26:49;101992.47;;;7.49;95.49
59043;BME280;44826;51.596;5.624;2023-02-21T00:29:33;102001.09;;;7.50;95.34
59043;BME280;44826;51.596;5.624;2023-02-21T00:32:17;101988.16;;;7.50;95.14
59043;BME280;44826;51.596;5.624;2023-02-21T00:35:01;101997.63;;;7.48;95.26
59043;BME280;44826;51.596;5.624;2023-02-21T00:37:49;102003.66;;;7.47;95.29
59043;BME280;44826;51.596;5.624;2023-02-21T00:40:33;102004.53;;;7.46;95.62
59043;BME280;44826;51.596;5.624;2023-02-21T00:43:17;102001.06;;;7.45;95.31
59043;BME280;44826;51.596;5.624;2023-02-21T00:46:02;101999.31;;;7.44;95.67
59043;BME280;44826;51.596;5.624;2023-02-21T00:48:46;101997.59;;;7.43;95.82
59043;BME280;44826;51.596;5.624;2023-02-21T00:51:30;102001.91;;;7.42;95.77
59043;BME280;44826;51.596;5.624;2023-02-21T00:54:14;101998.47;;;7.43;95.68
59043;BME280;44826;51.596;5.624;2023-02-21T00:56:58;101997.59;;;7.41;95.88
59043;BME280;44826;51.596;5.624;2023-02-21T00:59:42;101993.28;;;7.42;95.82
59043;BME280;44826;51.596;5.624;2023-02-21T01:02:26;101994.16;;;7.41;96.22
59043;BME280;44826;51.596;5.624;2023-02-21T01:05:10;101987.25;;;7.40;96.20
59043;BME280;44826;51.596;5.624;2023-02-21T01:07:54;101983.78;;;7.38;96.06
59043;BME280;44826;51.596;5.624;2023-02-21T01:10:38;101978.59;;;7.38;96.10
59043;BME280;44826;51.596;5.624;2023-02-21T01:13:22;101974.28;;;7.38;96.30
59043;BME280;44826;51.596;5.624;2023-02-21T01:16:06;101972.53;;;7.37;96.18
59043;BME280;44826;51.596;5.624;2023-02-21T01:18:50;101975.13;;;7.37;96.08
59043;BME280;44826;51.596;5.624;2023-02-21T01:21:34;101975.13;;;7.36;96.37
59043;BME280;44826;51.596;5.624;2023-02-21T01:24:18;101975.97;;;7.36;96.29
59043;BME280;44826;51.596;5.624;2023-02-21T01:27:02;101963.03;;;7.35;96.32
59043;BME280;44826;51.596;5.624;2023-02-21T01:29:46;101969.06;;;7.35;96.55
59043;BME280;44826;51.596;5.624;2023-02-21T01:32:31;101964.78;;;7.34;96.44
59043;BME280;44826;51.596;5.624;2023-02-21T01:35:15;101964.75;;;7.33;96.68
59043;BME280;44826;51.596;5.624;2023-02-21T01:37:59;101973.41;;;7.33;96.51
59043;BME280;44826;51.596;5.624;2023-02-21T01:40:43;101975.09;;;7.33;96.69
59043;BME280;44826;51.596;5.624;2023-02-21T01:43:28;101971.66;;;7.32;96.77
59043;BME280;44826;51.596;5.624;2023-02-21T01:46:19;101973.38;;;7.30;96.49
59043;BME280;44826;51.596;5.624;2023-02-21T01:49:15;101974.22;;;7.31;96.70
59043;BME280;44826;51.596;5.624;2023-02-21T01:52:02;101975.97;;;7.30;96.63
59043;BME280;44826;51.596;5.624;2023-02-21T01:54:50;101968.19;;;7.32;96.43
59043;BME280;44826;51.596;5.624;2023-02-21T01:57:38;101955.25;;;7.30;96.76
59043;BME280;44826;51.596;5.624;2023-02-21T02:00:23;101962.13;;;7.28;96.79
59043;BME280;44826;51.596;5.624;2023-02-21T02:03:09;101961.28;;;7.29;97.03
59043;BME280;44826;51.596;5.624;2023-02-21T02:05:58;101948.31;;;7.26;96.92
59043;BME280;44826;51.596;5.624;2023-02-21T02:08:43;101956.06;;;7.27;96.78
59043;BME280;44826;51.596;5.624;2023-02-21T02:23:23;101948.28;;;7.23;97.19
59043;BME280;44826;51.596;5.624;2023-02-21T02:37:04;101941.34;;;7.19;97.64
59043;BME280;44826;51.596;5.624;2023-02-21T02:39:58;101934.44;;;7.18;97.71
59043;BME280;44826;51.596;5.624;2023-02-21T02:42:45;101936.19;;;7.17;97.97
59043;BME280;44826;51.596;5.624;2023-02-21T02:45:21;101932.75;;;7.18;97.96
59043;BME280;44826;51.596;5.624;2023-02-21T02:47:55;101925.84;;;7.16;98.13
59043;BME280;44826;51.596;5.624;2023-02-21T02:50:23;101927.56;;;7.17;98.17
59043;BME280;44826;51.596;5.624;2023-02-21T02:52:57;101914.63;;;7.17;98.44
59043;BME280;44826;51.596;5.624;2023-02-21T02:55:48;101919.81;;;7.17;98.55
59043;BME280;44826;51.596;5.624;2023-02-21T02:58:16;101916.38;;;7.19;97.44
59043;BME280;44826;51.596;5.624;2023-02-21T03:00:47;101927.56;;;7.17;98.13
59043;BME280;44826;51.596;5.624;2023-02-21T03:03:32;101930.16;;;7.17;98.44
59043;BME280;44826;51.596;5.624;2023-02-21T03:06:13;101930.16;;;7.17;98.31
59043;BME280;44826;51.596;5.624;2023-02-21T03:11:22;101930.16;;;7.17;98.31
59043;BME280;44826;51.596;5.624;2023-02-21T03:13:56;101924.09;;;7.18;98.61
59043;BME280;44826;51.596;5.624;2023-02-21T03:16:35;101923.25;;;7.17;98.66
59043;BME280;44826;51.596;5.624;2023-02-21T03:19:08;101924.09;;;7.18;98.97
59043;BME280;44826;51.596;5.624;2023-02-21T03:21:45;101931.00;;;7.19;98.63
59043;BME280;44826;51.596;5.624;2023-02-21T03:24:12;101924.97;;;7.18;98.36
59043;BME280;44826;51.596;5.624;2023-02-21T03:26:41;101931.84;;;7.18;98.64
59043;BME280;44826;51.596;5.624;2023-02-21T03:29:09;101931.84;;;7.18;98.69
59043;BME280;44826;51.596;5.624;2023-02-21T03:31:40;101926.69;;;7.18;98.79
59043;BME280;44826;51.596;5.624;2023-02-21T03:34:08;101925.81;;;7.19;98.98
59043;BME280;44826;51.596;5.624;2023-02-21T03:36:35;101927.56;;;7.17;98.94
59043;BME280;44826;51.596;5.624;2023-02-21T03:39:01;101921.50;;;7.16;98.95
59043;BME280;44826;51.596;5.624;2023-02-21T03:41:26;101934.44;;;7.18;98.97
59043;BME280;44826;51.596;5.624;2023-02-21T03:43:51;101930.16;;;7.17;98.98
59043;BME280;44826;51.596;5.624;2023-02-21T03:46:17;101924.97;;;7.17;99.18
59043;BME280;44826;51.596;5.624;2023-02-21T03:48:42;101925.84;;;7.16;99.09
59043;BME280;44826;51.596;5.624;2023-02-21T03:51:08;101915.50;;;7.16;99.05
59043;BME280;44826;51.596;5.624;2023-02-21T03:53:33;101914.59;;;7.15;99.35
59043;BME280;44826;51.596;5.624;2023-02-21T03:55:59;101916.34;;;7.14;99.17
59043;BME280;44826;51.596;5.624;2023-02-21T03:58:24;101923.22;;;7.12;99.23
59043;BME280;44826;51.596;5.624;2023-02-21T04:00:49;101919.75;;;7.12;99.30
59043;BME280;44826;51.596;5.624;2023-02-21T04:03:16;101924.06;;;7.11;99.32
59043;BME280;44826;51.596;5.624;2023-02-21T04:05:41;101924.06;;;7.11;99.49
59043;BME280;44826;51.596;5.624;2023-02-21T04:08:06;101927.53;;;7.10;99.58
59043;BME280;44826;51.596;5.624;2023-02-21T04:10:32;101932.69;;;7.10;99.83
59043;BME280;44826;51.596;5.624;2023-02-21T04:12:57;101929.25;;;7.11;99.69
59043;BME280;44826;51.596;5.624;2023-02-21T04:15:22;101924.06;;;7.11;99.75
59043;BME280;44826;51.596;5.624;2023-02-21T04:17:47;101925.81;;;7.12;99.79
59043;BME280;44826;51.596;5.624;2023-02-21T04:20:13;101921.50;;;7.13;99.96
59043;BME280;44826;51.596;5.624;2023-02-21T04:22:39;101917.19;;;7.13;99.95
59043;BME280;44826;51.596;5.624;2023-02-21T04:25:05;101906.84;;;7.13;99.92
59043;BME280;44826;51.596;5.624;2023-02-21T04:27:30;101907.69;;;7.14;100.00
59043;BME280;44826;51.596;5.624;2023-02-21T04:29:55;101902.53;;;7.12;100.00
59043;BME280;44826;51.596;5.624;2023-02-21T04:32:21;101912.88;;;7.12;100.00
59043;BME280;44826;51.596;5.624;2023-02-21T04:34:46;101899.94;;;7.12;100.00
59043;BME280;44826;51.596;5.624;2023-02-21T04:37:11;101900.78;;;7.11;100.00
59043;BME280;44826;51.596;5.624;2023-02-21T04:39:36;101899.94;;;7.12;100.00
59043;BME280;44826;51.596;5.624;2023-02-21T04:42:02;101899.94;;;7.12;100.00
59043;BME280;44826;51.596;5.624;2023-02-21T04:44:27;101893.03;;;7.11;100.00
59043;BME280;44826;51.596;5.624;2023-02-21T04:46:52;101890.44;;;7.11;100.00
59043;BME280;44826;51.596;5.624;2023-02-21T04:49:18;101894.75;;;7.09;100.00
59043;BME280;44826;51.596;5.624;2023-02-21T04:51:43;101895.59;;;7.10;100.00
59043;BME280;44826;51.596;5.624;2023-02-21T04:54:08;101895.59;;;7.08;100.00
59043;BME280;44826;51.596;5.624;2023-02-21T04:56:33;101898.19;;;7.08;100.00
59043;BME280;44826;51.596;5.624;2023-02-21T04:58:59;101894.75;;;7.09;100.00
59043;BME280;44826;51.596;5.624;2023-02-21T05:01:28;101882.66;;;7.08;100.00
59043;BME280;44826;51.596;5.624;2023-02-21T05:03:54;101887.81;;;7.08;100.00
59043;BME280;44826;51.596;5.624;2023-02-21T05:06:22;101894.72;;;7.06;100.00
59043;BME280;44826;51.596;5.624;2023-02-21T05:08:47;101889.53;;;7.06;100.00
59043;BME280;44826;51.596;5.624;2023-02-21T05:11:15;101889.53;;;7.06;100.00
59043;BME280;44826;51.596;5.624;2023-02-21T05:13:41;101889.53;;;7.06;100.00
59043;BME280;44826;51.596;5.624;2023-02-21T05:16:06;101891.28;;;7.07;100.00
59043;BME280;44826;51.596;5.624;2023-02-21T05:18:31;101905.06;;;7.06;100.00
59043;BME280;44826;51.596;5.624;2023-02-21T05:20:58;101905.94;;;7.07;100.00
59043;BME280;44826;51.596;5.624;2023-02-21T05:23:24;101905.06;;;7.06;100.00
59043;BME280;44826;51.596;5.624;2023-02-21T05:26:08;101901.63;;;7.07;100.00
59043;BME280;44826;51.596;5.624;2023-02-21T05:28:35;101904.22;;;7.06;100.00
59043;BME280;44826;51.596;5.624;2023-02-21T05:31:01;101907.63;;;7.03;100.00
59043;BME280;44826;51.596;5.624;2023-02-21T05:33:26;101905.91;;;7.02;100.00
59043;BME280;44826;51.596;5.624;2023-02-21T05:35:52;101900.75;;;7.04;100.00
59043;BME280;44826;51.596;5.624;2023-02-21T05:38:19;101898.13;;;7.02;100.00
59043;BME280;44826;51.596;5.624;2023-02-21T05:40:44;101892.09;;;7.03;100.00
59043;BME280;44826;51.596;5.624;2023-02-21T05:43:10;101886.94;;;7.02;100.00
59043;BME280;44826;51.596;5.624;2023-02-21T05:45:35;101901.56;;;7.01;100.00
59043;BME280;44826;51.596;5.624;2023-02-21T05:48:01;101897.28;;;7.00;100.00
59043;BME280;44826;51.596;5.624;2023-02-21T05:50:27;101900.72;;;7.01;100.00
59043;BME280;44826;51.596;5.624;2023-02-21T05:52:55;101902.47;;;7.00;100.00
59043;BME280;44826;51.596;5.624;2023-02-21T05:55:20;101900.72;;;6.99;100.00
59043;BME280;44826;51.596;5.624;2023-02-21T05:57:45;101901.56;;;6.98;100.00
59043;BME280;44826;51.596;5.624;2023-02-21T06:00:19;101898.13;;;6.96;100.00
59043;BME280;44826;51.596;5.624;2023-02-21T06:02:48;101911.03;;;6.94;100.00
59043;BME280;44826;51.596;5.624;2023-02-21T06:05:15;101905.84;;;6.94;100.00
59043;BME280;44826;51.596;5.624;2023-02-21T06:07:40;101903.25;;;6.93;100.00
59043;BME280;44826;51.596;5.624;2023-02-21T06:10:05;101902.38;;;6.92;100.00
59043;BME280;44826;51.596;5.624;2023-02-21T06:12:30;101898.06;;;6.90;100.00
59043;BME280;44826;51.596;5.624;2023-02-21T06:14:56;101900.66;;;6.90;100.00
59043;BME280;44826;51.596;5.624;2023-02-21T06:17:21;101899.78;;;6.89;100.00
59043;BME280;44826;51.596;5.624;2023-02-21T06:19:46;101906.69;;;6.89;100.00
59043;BME280;44826;51.596;5.624;2023-02-21T06:22:12;101903.22;;;6.87;100.00
59043;BME280;44826;51.596;5.624;2023-02-21T06:24:37;101900.63;;;6.87;100.00
59043;BME280;44826;51.596;5.624;2023-02-21T06:27:02;101893.75;;;6.87;100.00
59043;BME280;44826;51.596;5.624;2023-02-21T06:29:28;101904.94;;;6.88;100.00
59043;BME280;44826;51.596;5.624;2023-02-21T06:31:57;101901.47;;;6.86;100.00
59043;BME280;44826;51.596;5.624;2023-02-21T06:34:23;101913.53;;;6.83;100.00
59043;BME280;44826;51.596;5.624;2023-02-21T06:36:53;101905.78;;;6.83;100.00
59043;BME280;44826;51.596;5.624;2023-02-21T06:39:18;101903.19;;;6.83;100.00
59043;BME280;44826;51.596;5.624;2023-02-21T06:41:43;101904.91;;;6.81;100.00
59043;BME280;44826;51.596;5.624;2023-02-21T06:44:09;101908.34;;;6.80;100.00
59043;BME280;44826;51.596;5.624;2023-02-21T06:46:35;101913.53;;;6.80;100.00
59043;BME280;44826;51.596;5.624;2023-02-21T06:49:03;101909.22;;;6.79;100.00
59043;BME280;44826;51.596;5.624;2023-02-21T06:51:35;101909.22;;;6.79;100.00
59043;BME280;44826;51.596;5.624;2023-02-21T06:54:01;101908.34;;;6.77;100.00
59043;BME280;44826;51.596;5.624;2023-02-21T06:56:27;101922.13;;;6.78;100.00
59043;BME280;44826;51.596;5.624;2023-02-21T06:58:53;101915.25;;;6.78;100.00
59043;BME280;44826;51.596;5.624;2023-02-21T07:01:18;101910.88;;;6.76;100.00
59043;BME280;44826;51.596;5.624;2023-02-21T07:03:43;101909.19;;;6.76;100.00
59043;BME280;44826;51.596;5.624;2023-02-21T07:06:10;101920.38;;;6.75;100.00
59043;BME280;44826;51.596;5.624;2023-02-21T07:08:35;101922.97;;;6.74;100.00
59043;BME280;44826;51.596;5.624;2023-02-21T07:11:01;101929.84;;;6.73;100.00
59043;BME280;44826;51.596;5.624;2023-02-21T07:13:26;101916.06;;;6.74;100.00
59043;BME280;44826;51.596;5.624;2023-02-21T07:15:51;101918.66;;;6.73;100.00
59043;BME280;44826;51.596;5.624;2023-02-21T07:18:17;101925.53;;;6.72;100.00
59043;BME280;44826;51.596;5.624;2023-02-21T07:20:42;101928.09;;;6.72;100.00
59043;BME280;44826;51.596;5.624;2023-02-21T07:23:07;101928.09;;;6.72;100.00
59043;BME280;44826;51.596;5.624;2023-02-21T07:25:33;101917.75;;;6.72;100.00
59043;BME280;44826;51.596;5.624;2023-02-21T07:27:58;101914.34;;;6.72;100.00
59043;BME280;44826;51.596;5.624;2023-02-21T07:30:23;101925.53;;;6.72;100.00
59043;BME280;44826;51.596;5.624;2023-02-21T07:32:49;101919.50;;;6.72;100.00
59043;BME280;44826;51.596;5.624;2023-02-21T07:35:14;101924.69;;;6.72;100.00
59043;BME280;44826;51.596;5.624;2023-02-21T07:37:39;101916.03;;;6.71;100.00
59043;BME280;44826;51.596;5.624;2023-02-21T07:40:05;101920.34;;;6.72;100.00
59043;BME280;44826;51.596;5.624;2023-02-21T07:42:31;101923.78;;;6.71;100.00
59043;BME280;44826;51.596;5.624;2023-02-21T07:44:57;101927.22;;;6.70;100.00
59043;BME280;44826;51.596;5.624;2023-02-21T07:47:24;101927.22;;;6.70;100.00
59043;BME280;44826;51.596;5.624;2023-02-21T07:49:50;101913.44;;;6.70;100.00
59043;BME280;44826;51.596;5.624;2023-02-21T07:52:16;101916.03;;;6.71;100.00
59043;BME280;44826;51.596;5.624;2023-02-21T07:54:41;101929.00;;;6.73;100.00
59043;BME280;44826;51.596;5.624;2023-02-21T07:57:06;101931.59;;;6.73;100.00
59043;BME280;44826;51.596;5.624;2023-02-21T07:59:32;101929.00;;;6.74;100.00
59043;BME280;44826;51.596;5.624;2023-02-21T08:01:57;101929.03;;;6.77;100.00
59043;BME280;44826;51.596;5.624;2023-02-21T08:04:23;101925.59;;;6.78;100.00
59043;BME280;44826;51.596;5.624;2023-02-21T08:06:48;101930.75;;;6.80;100.00
59043;BME280;44826;51.596;5.624;2023-02-21T08:09:14;101930.75;;;6.80;100.00
59043;BME280;44826;51.596;5.624;2023-02-21T08:11:40;101929.06;;;6.80;100.00
59043;BME280;44826;51.596;5.624;2023-02-21T08:14:05;101935.97;;;6.81;100.00
59043;BME280;44826;51.596;5.624;2023-02-21T08:16:31;101930.78;;;6.81;100.00
59043;BME280;44826;51.596;5.624;2023-02-21T08:18:56;101935.09;;;6.82;100.00
59043;BME280;44826;51.596;5.624;2023-02-21T08:21:22;101931.63;;;6.83;100.00
59043;BME280;44826;51.596;5.624;2023-02-21T08:23:49;101922.16;;;6.86;100.00
59043;BME280;44826;51.596;5.624;2023-02-21T08:26:15;101925.63;;;6.88;100.00
59043;BME280;44826;51.596;5.624;2023-02-21T08:28:41;101922.19;;;6.89;100.00
59043;BME280;44826;51.596;5.624;2023-02-21T08:31:06;101919.63;;;6.90;100.00
59043;BME280;44826;51.596;5.624;2023-02-21T08:33:31;101922.22;;;6.92;100.00
59043;BME280;44826;51.596;5.624;2023-02-21T08:35:57;101935.16;;;6.92;100.00
59043;BME280;44826;51.596;5.624;2023-02-21T08:38:22;101932.53;;;6.89;100.00
59043;BME280;44826;51.596;5.624;2023-02-21T08:40:47;101924.78;;;6.89;100.00
59043;BME280;44826;51.596;5.624;2023-02-21T08:43:13;101924.78;;;6.87;100.00
59043;BME280;44826;51.596;5.624;2023-02-21T08:45:38;101919.59;;;6.86;100.00
59043;BME280;44826;51.596;5.624;2023-02-21T08:48:03;101922.16;;;6.86;100.00
59043;BME280;44826;51.596;5.624;2023-02-21T08:50:29;101929.03;;;6.83;100.00
59043;BME280;44826;51.596;5.624;2023-02-21T08:52:55;101919.59;;;6.82;100.00
59043;BME280;44826;51.596;5.624;2023-02-21T08:55:21;101929.06;;;6.80;100.00
59043;BME280;44826;51.596;5.624;2023-02-21T08:57:47;101921.28;;;6.80;100.00
59043;BME280;44826;51.596;5.624;2023-02-21T09:00:15;101929.03;;;6.83;100.00
59043;BME280;44826;51.596;5.624;2023-02-21T09:02:40;101919.59;;;6.84;100.00
59043;BME280;44826;51.596;5.624;2023-02-21T09:05:08;101923.91;;;6.87;100.00
59043;BME280;44826;51.596;5.624;2023-02-21T09:07:34;101929.97;;;6.87;100.00
59043;BME280;44826;51.596;5.624;2023-02-21T09:10:00;101917.88;;;6.88;100.00
59043;BME280;44826;51.596;5.624;2023-02-21T09:12:25;101916.19;;;6.91;100.00
59043;BME280;44826;51.596;5.624;2023-02-21T09:14:50;101918.78;;;6.93;100.00
59043;BME280;44826;51.596;5.624;2023-02-21T09:17:16;101914.50;;;6.95;100.00
59043;BME280;44826;51.596;5.624;2023-02-21T09:19:41;101899.81;;;6.94;100.00
59043;BME280;44826;51.596;5.624;2023-02-21T09:22:08;101909.31;;;6.96;100.00
59043;BME280;44826;51.596;5.624;2023-02-21T09:24:34;101900.69;;;6.97;100.00
59043;BME280;44826;51.596;5.624;2023-02-21T09:26:59;101905.03;;;7.00;100.00
59043;BME280;44826;51.596;5.624;2023-02-21T09:29:28;101904.19;;;7.04;100.00
59043;BME280;44826;51.596;5.624;2023-02-21T09:31:53;101899.91;;;7.08;100.00
59043;BME280;44826;51.596;5.624;2023-02-21T09:34:19;101899.06;;;7.12;100.00
59043;BME280;44826;51.596;5.624;2023-02-21T09:36:44;101894.78;;;7.16;100.00
59043;BME280;44826;51.596;5.624;2023-02-21T09:39:11;101898.22;;;7.18;100.00
59043;BME280;44826;51.596;5.624;2023-02-21T09:41:37;101896.53;;;7.23;100.00
59043;BME280;44826;51.596;5.624;2023-02-21T09:44:05;101887.94;;;7.25;100.00
59043;BME280;44826;51.596;5.624;2023-02-21T09:46:39;101887.94;;;7.30;100.00
59043;BME280;44826;51.596;5.624;2023-02-21T09:49:13;101892.25;;;7.33;100.00
59043;BME280;44826;51.596;5.624;2023-02-21T09:51:43;101896.59;;;7.34;100.00
59043;BME280;44826;51.596;5.624;2023-02-21T09:54:30;101894.88;;;7.34;100.00
59043;BME280;44826;51.596;5.624;2023-02-21T09:56:59;101884.53;;;7.34;100.00
59043;BME280;44826;51.596;5.624;2023-02-21T09:59:25;101894.88;;;7.34;100.00
59043;BME280;44826;51.596;5.624;2023-02-21T10:02:09;101895.72;;;7.35;100.00
59043;BME280;44826;51.596;5.624;2023-02-21T10:05:47;101895.75;;;7.38;100.00
59043;BME280;44826;51.596;5.624;2023-02-21T10:08:00;101894.88;;;7.37;100.00
59043;BME280;44826;51.596;5.624;2023-02-21T10:10:32;101895.72;;;7.36;100.00
59043;BME280;44826;51.596;5.624;2023-02-21T10:13:16;101887.97;;;7.36;100.00
59043;BME280;44826;51.596;5.624;2023-02-21T10:16:04;101894.88;;;7.37;100.00
59043;BME280;44826;51.596;5.624;2023-02-21T10:18:37;101894.88;;;7.37;100.00
59043;BME280;44826;51.596;5.624;2023-02-21T10:21:13;101900.06;;;7.40;100.00
59043;BME280;44826;51.596;5.624;2023-02-21T10:23:46;101899.22;;;7.41;100.00
59043;BME280;44826;51.596;5.624;2023-02-21T10:26:17;101888.84;;;7.41;100.00
59043;BME280;44826;51.596;5.624;2023-02-21T10:28:44;101894.06;;;7.44;100.00
59043;BME280;44826;51.596;5.624;2023-02-21T10:31:23;101889.75;;;7.47;100.00
59043;BME280;44826;51.596;5.624;2023-02-21T10:33:53;101896.66;;;7.48;99.78
59043;BME280;44826;51.596;5.624;2023-02-21T10:36:21;101899.25;;;7.48;99.83
59043;BME280;44826;51.596;5.624;2023-02-21T10:39:05;101896.69;;;7.51;99.98
59043;BME280;44826;51.596;5.624;2023-02-21T10:41:38;101898.38;;;7.52;99.64
59043;BME280;44826;51.596;5.624;2023-02-21T10:44:11;101895.78;;;7.52;99.56
59043;BME280;44826;51.596;5.624;2023-02-21T10:47:02;101896.66;;;7.54;99.56
59043;BME280;44826;51.596;5.624;2023-02-21T10:49:45;101894.09;;;7.57;99.21
59043;BME280;44826;51.596;5.624;2023-02-21T10:52:15;101896.72;;;7.58;99.35
59043;BME280;44826;51.596;5.624;2023-02-21T10:55:00;101896.69;;;7.60;99.07
59043;BME280;44826;51.596;5.624;2023-02-21T10:57:26;101891.53;;;7.63;98.89
59043;BME280;44826;51.596;5.624;2023-02-21T10:59:52;101891.53;;;7.65;98.85
59043;BME280;44826;51.596;5.624;2023-02-21T11:02:36;101890.69;;;7.70;98.91
59043;BME280;44826;51.596;5.624;2023-02-21T11:05:15;101894.16;;;7.74;98.67
59043;BME280;44826;51.596;5.624;2023-02-21T11:10:45;101882.06;;;7.78;98.49
59043;BME280;44826;51.596;5.624;2023-02-21T11:13:19;101881.19;;;7.77;98.05
59043;BME280;44826;51.596;5.624;2023-02-21T11:15:45;101880.34;;;7.78;98.02
59043;BME280;44826;51.596;5.624;2023-02-21T11:20:45;101874.31;;;7.82;97.76
59043;BME280;44826;51.596;5.624;2023-02-21T11:23:26;101877.78;;;7.83;97.58
59043;BME280;44826;51.596;5.624;2023-02-21T11:26:09;101875.16;;;7.86;97.64
59043;BME280;44826;51.596;5.624;2023-02-21T11:28:40;101873.47;;;7.85;97.60
59043;BME280;44826;51.596;5.624;2023-02-21T11:31:28;101861.38;;;7.85;97.64
59043;BME280;44826;51.596;5.624;2023-02-21T11:34:01;101867.41;;;7.86;97.31
59043;BME280;44826;51.596;5.624;2023-02-21T11:36:29;101865.69;;;7.88;97.14
59043;BME280;44826;51.596;5.624;2023-02-21T11:39:25;101857.06;;;7.92;97.11
59043;BME280;44826;51.596;5.624;2023-02-21T11:42:03;101860.53;;;7.94;97.21
59043;BME280;44826;51.596;5.624;2023-02-21T11:44:47;101862.25;;;7.95;96.98
59043;BME280;44826;51.596;5.624;2023-02-21T11:47:30;101862.25;;;7.92;96.91
59043;BME280;44826;51.596;5.624;2023-02-21T11:50:24;101862.25;;;7.87;97.05
59043;BME280;44826;51.596;5.624;2023-02-21T11:55:41;101854.47;;;7.83;97.10
59043;BME280;44826;51.596;5.624;2023-02-21T11:58:26;101851.88;;;7.80;97.08
59043;BME280;44826;51.596;5.624;2023-02-21T12:01:06;101848.41;;;7.78;97.53
59043;BME280;44826;51.596;5.624;2023-02-21T12:06:19;101839.78;;;7.79;97.34
59043;BME280;44826;51.596;5.624;2023-02-21T12:08:58;101840.66;;;7.81;97.54
59043;BME280;44826;51.596;5.624;2023-02-21T12:12:07;101838.06;;;7.84;97.70
59043;BME280;44826;51.596;5.624;2023-02-21T12:17:35;101836.31;;;7.89;97.15
59043;BME280;44826;51.596;5.624;2023-02-21T12:20:24;101828.56;;;7.87;97.01
59043;BME280;44826;51.596;5.624;2023-02-21T12:23:04;101829.41;;;7.88;97.23
59043;BME280;44826;51.596;5.624;2023-02-21T12:25:50;101826.84;;;7.93;96.68
59043;BME280;44826;51.596;5.624;2023-02-21T12:28:34;101815.59;;;7.97;96.41
59043;BME280;44826;51.596;5.624;2023-02-21T12:31:19;101814.75;;;7.99;96.35
59043;BME280;44826;51.596;5.624;2023-02-21T12:36:17;101815.63;;;8.01;95.92
59043;BME280;44826;51.596;5.624;2023-02-21T12:39:04;101812.19;;;8.02;96.23
59043;BME280;44826;51.596;5.624;2023-02-21T12:44:21;101810.44;;;7.98;95.72
59043;BME280;44826;51.596;5.624;2023-02-21T12:46:56;101808.69;;;7.91;95.93
59043;BME280;44826;51.596;5.624;2023-02-21T12:49:28;101810.44;;;7.87;95.94
59043;BME280;44826;51.596;5.624;2023-02-21T12:52:01;101810.41;;;7.86;95.75
59043;BME280;44826;51.596;5.624;2023-02-21T12:54:49;101808.72;;;7.85;95.79
59043;BME280;44826;51.596;5.624;2023-02-21T12:57:27;101806.09;;;7.83;95.87
59043;BME280;44826;51.596;5.624;2023-02-21T13:00:10;101803.53;;;7.85;95.77
59043;BME280;44826;51.596;5.624;2023-02-21T13:03:03;101800.03;;;7.86;96.13
59043;BME280;44826;51.596;5.624;2023-02-21T13:05:38;101795.72;;;7.88;95.75
59043;BME280;44826;51.596;5.624;2023-02-21T13:08:13;101788.81;;;7.90;95.84
59043;BME280;44826;51.596;5.624;2023-02-21T13:13:21;101794.88;;;7.97;95.61
59043;BME280;44826;51.596;5.624;2023-02-21T13:15:49;101799.19;;;7.96;95.50
59043;BME280;44826;51.596;5.624;2023-02-21T13:18:24;101791.44;;;7.96;94.87
59043;BME280;44826;51.596;5.624;2023-02-21T13:20:59;101791.44;;;7.96;95.35
59043;BME280;44826;51.596;5.624;2023-02-21T13:23:51;101783.66;;;8.01;95.04
59043;BME280;44826;51.596;5.624;2023-02-21T13:26:46;101788.84;;;8.01;94.47
59043;BME280;44826;51.596;5.624;2023-02-21T13:29:24;101781.06;;;8.02;94.26
59043;BME280;44826;51.596;5.624;2023-02-21T13:32:05;101778.47;;;8.04;94.29
59043;BME280;44826;51.596;5.624;2023-02-21T13:34:38;101776.72;;;8.04;94.54
59043;BME280;44826;51.596;5.624;2023-02-21T13:37:07;101769.81;;;8.07;94.00
59043;BME280;44826;51.596;5.624;2023-02-21T13:39:34;101769.81;;;8.07;94.04
59043;BME280;44826;51.596;5.624;2023-02-21T13:42:07;101767.22;;;8.07;94.17
59043;BME280;44826;51.596;5.624;2023-02-21T13:44:44;101758.59;;;8.04;93.86
59043;BME280;44826;51.596;5.624;2023-02-21T13:47:11;101763.78;;;8.04;93.88
59043;BME280;44826;51.596;5.624;2023-02-21T13:52:13;101763.81;;;8.01;93.62
59043;BME280;44826;51.596;5.624;2023-02-21T13:57:41;101761.19;;;7.98;93.61
59043;BME280;44826;51.596;5.624;2023-02-21T14:13:40;101766.38;;;7.97;92.99
59043;BME280;44826;51.596;5.624;2023-02-21T14:23:51;101756.03;;;7.87;91.93
59043;BME280;44826;51.596;5.624;2023-02-21T14:29:39;101746.50;;;7.86;92.01
59043;BME280;44826;51.596;5.624;2023-02-21T14:39:59;101743.06;;;7.84;91.62
59043;BME280;44826;51.596;5.624;2023-02-21T14:56:34;101733.56;;;7.75;91.65
59043;BME280;44826;51.596;5.624;2023-02-21T15:07:06;101734.41;;;7.78;91.45
59043;BME280;44826;51.596;5.624;2023-02-21T15:09:34;101727.53;;;7.80;91.29
59043;BME280;44826;51.596;5.624;2023-02-21T15:12:00;101730.09;;;7.81;91.25